sensor_id;sensor_type;location;lat;lon;timestamp;temperature;humidity
10848;DHT22;5477;48.806;9.154;2024-03-29T00:02:12;7.00;99.90
10848;DHT22;5477;48.806;9.154;2024-03-29T00:04:38;7.10;99.90
10848;DHT22;5477;48.806;9.154;2024-03-29T00:07:05;7.20;99.90
10848;DHT22;5477;48.806;9.154;2024-03-29T00:09:31;7.30;99.90
10848;DHT22;5477;48.806;9.154;2024-03-29T00:11:57;7.40;99.90
10848;DHT22;5477;48.806;9.154;2024-03-29T00:14:23;7.50;99.90
10848;DHT22;5477;48.806;9.154;2024-03-29T00:16:49;7.50;99.90
10848;DHT22;5477;48.806;9.154;2024-03-29T00:19:16;7.50;99.90
10848;DHT22;5477;48.806;9.154;2024-03-29T00:21:43;7.50;99.90
10848;DHT22;5477;48.806;9.154;2024-03-29T00:24:09;7.60;99.90
10848;DHT22;5477;48.806;9.154;2024-03-29T00:26:35;7.60;99.90
10848;DHT22;5477;48.806;9.154;2024-03-29T00:29:01;7.60;99.90
10848;DHT22;5477;48.806;9.154;2024-03-29T00:31:28;7.70;99.90
10848;DHT22;5477;48.806;9.154;2024-03-29T00:33:54;7.70;99.90
10848;DHT22;5477;48.806;9.154;2024-03-29T00:36:21;7.70;99.90
10848;DHT22;5477;48.806;9.154;2024-03-29T00:38:47;7.70;99.90
10848;DHT22;5477;48.806;9.154;2024-03-29T00:41:14;7.80;99.90
10848;DHT22;5477;48.806;9.154;2024-03-29T00:43:40;7.80;99.90
10848;DHT22;5477;48.806;9.154;2024-03-29T00:46:06;7.90;99.90
10848;DHT22;5477;48.806;9.154;2024-03-29T00:48:32;8.00;99.90
10848;DHT22;5477;48.806;9.154;2024-03-29T00:50:58;8.00;99.90
10848;DHT22;5477;48.806;9.154;2024-03-29T00:53:25;8.10;99.90
10848;DHT22;5477;48.806;9.154;2024-03-29T00:55:52;8.20;99.90
10848;DHT22;5477;48.806;9.154;2024-03-29T00:58:18;8.20;99.90
10848;DHT22;5477;48.806;9.154;2024-03-29T01:00:44;8.30;99.90
10848;DHT22;5477;48.806;9.154;2024-03-29T01:03:10;8.30;99.90
10848;DHT22;5477;48.806;9.154;2024-03-29T01:05:36;8.30;99.90
10848;DHT22;5477;48.806;9.154;2024-03-29T01:08:03;8.40;99.90
10848;DHT22;5477;48.806;9.154;2024-03-29T01:10:30;8.40;99.90
10848;DHT22;5477;48.806;9.154;2024-03-29T01:12:57;8.40;99.90
10848;DHT22;5477;48.806;9.154;2024-03-29T01:15:23;8.40;99.90
10848;DHT22;5477;48.806;9.154;2024-03-29T01:17:49;8.40;99.90
10848;DHT22;5477;48.806;9.154;2024-03-29T01:20:15;8.40;99.90
10848;DHT22;5477;48.806;9.154;2024-03-29T01:22:41;8.40;99.90
10848;DHT22;5477;48.806;9.154;2024-03-29T01:25:08;8.50;99.90
10848;DHT22;5477;48.806;9.154;2024-03-29T01:27:35;8.50;99.90
10848;DHT22;5477;48.806;9.154;2024-03-29T01:30:02;8.50;99.90
10848;DHT22;5477;48.806;9.154;2024-03-29T01:32:28;8.50;99.90
10848;DHT22;5477;48.806;9.154;2024-03-29T01:34:54;8.50;99.90
10848;DHT22;5477;48.806;9.154;2024-03-29T01:37:20;8.40;99.90
10848;DHT22;5477;48.806;9.154;2024-03-29T01:39:47;8.40;99.90
10848;DHT22;5477;48.806;9.154;2024-03-29T01:42:13;8.40;99.90
10848;DHT22;5477;48.806;9.154;2024-03-29T01:44:41;8.40;99.90
10848;DHT22;5477;48.806;9.154;2024-03-29T01:47:08;8.40;99.90
10848;DHT22;5477;48.806;9.154;2024-03-29T01:49:35;8.40;99.90
10848;DHT22;5477;48.806;9.154;2024-03-29T01:52:03;8.30;99.90
10848;DHT22;5477;48.806;9.154;2024-03-29T01:54:31;8.30;99.90
10848;DHT22;5477;48.806;9.154;2024-03-29T01:56:58;8.30;99.90
10848;DHT22;5477;48.806;9.154;2024-03-29T01:59:25;8.30;99.90
10848;DHT22;5477;48.806;9.154;2024-03-29T02:01:54;8.20;99.90
10848;DHT22;5477;48.806;9.154;2024-03-29T02:04:21;8.20;99.90
10848;DHT22;5477;48.806;9.154;2024-03-29T02:06:49;8.20;99.90
10848;DHT22;5477;48.806;9.154;2024-03-29T02:09:15;8.20;99.90
10848;DHT22;5477;48.806;9.154;2024-03-29T02:11:42;8.30;99.90
10848;DHT22;5477;48.806;9.154;2024-03-29T02:14:09;8.30;99.90
10848;DHT22;5477;48.806;9.154;2024-03-29T02:16:36;8.40;99.90
10848;DHT22;5477;48.806;9.154;2024-03-29T02:19:05;8.50;99.90
10848;DHT22;5477;48.806;9.154;2024-03-29T02:21:33;8.50;99.90
10848;DHT22;5477;48.806;9.154;2024-03-29T02:24:07;8.60;99.90
10848;DHT22;5477;48.806;9.154;2024-03-29T02:26:35;8.60;99.90
10848;DHT22;5477;48.806;9.154;2024-03-29T02:29:07;8.60;99.90
10848;DHT22;5477;48.806;9.154;2024-03-29T02:31:35;8.70;99.90
10848;DHT22;5477;48.806;9.154;2024-03-29T02:34:02;8.70;99.90
10848;DHT22;5477;48.806;9.154;2024-03-29T02:36:29;8.80;99.90
10848;DHT22;5477;48.806;9.154;2024-03-29T02:38:56;8.80;99.90
10848;DHT22;5477;48.806;9.154;2024-03-29T02:41:24;8.90;99.90
10848;DHT22;5477;48.806;9.154;2024-03-29T02:43:53;8.90;99.90
10848;DHT22;5477;48.806;9.154;2024-03-29T02:46:20;9.00;99.90
10848;DHT22;5477;48.806;9.154;2024-03-29T02:48:47;9.00;99.90
10848;DHT22;5477;48.806;9.154;2024-03-29T02:51:13;9.10;99.90
10848;DHT22;5477;48.806;9.154;2024-03-29T02:53:40;9.10;99.90
10848;DHT22;5477;48.806;9.154;2024-03-29T02:56:07;9.10;99.90
10848;DHT22;5477;48.806;9.154;2024-03-29T02:58:35;9.10;99.90
10848;DHT22;5477;48.806;9.154;2024-03-29T03:01:06;9.10;99.90
10848;DHT22;5477;48.806;9.154;2024-03-29T03:03:32;9.10;99.90
10848;DHT22;5477;48.806;9.154;2024-03-29T03:05:59;9.10;99.90
10848;DHT22;5477;48.806;9.154;2024-03-29T03:08:25;9.10;99.90
10848;DHT22;5477;48.806;9.154;2024-03-29T03:11:10;9.20;99.90
10848;DHT22;5477;48.806;9.154;2024-03-29T03:13:38;9.20;99.90
10848;DHT22;5477;48.806;9.154;2024-03-29T03:16:06;9.20;99.90
10848;DHT22;5477;48.806;9.154;2024-03-29T03:18:33;9.20;99.90
10848;DHT22;5477;48.806;9.154;2024-03-29T03:20:59;9.20;99.90
10848;DHT22;5477;48.806;9.154;2024-03-29T03:23:26;9.20;99.90
10848;DHT22;5477;48.806;9.154;2024-03-29T03:25:54;9.20;99.90
10848;DHT22;5477;48.806;9.154;2024-03-29T03:28:20;9.20;99.90
10848;DHT22;5477;48.806;9.154;2024-03-29T03:30:49;9.20;99.90
10848;DHT22;5477;48.806;9.154;2024-03-29T03:33:15;9.20;99.90
10848;DHT22;5477;48.806;9.154;2024-03-29T03:35:42;9.30;99.90
10848;DHT22;5477;48.806;9.154;2024-03-29T03:38:08;9.30;99.90
10848;DHT22;5477;48.806;9.154;2024-03-29T03:40:36;9.30;99.90
10848;DHT22;5477;48.806;9.154;2024-03-29T03:43:03;9.30;99.90
10848;DHT22;5477;48.806;9.154;2024-03-29T03:45:34;9.40;99.90
10848;DHT22;5477;48.806;9.154;2024-03-29T03:48:02;9.40;99.90
10848;DHT22;5477;48.806;9.154;2024-03-29T03:50:29;9.50;99.90
10848;DHT22;5477;48.806;9.154;2024-03-29T03:52:55;9.50;99.90
10848;DHT22;5477;48.806;9.154;2024-03-29T03:55:22;9.50;99.90
10848;DHT22;5477;48.806;9.154;2024-03-29T03:57:48;9.50;99.90
10848;DHT22;5477;48.806;9.154;2024-03-29T04:00:17;9.50;99.90
10848;DHT22;5477;48.806;9.154;2024-03-29T04:02:47;9.50;99.90
10848;DHT22;5477;48.806;9.154;2024-03-29T04:05:16;9.50;99.90
10848;DHT22;5477;48.806;9.154;2024-03-29T04:07:43;9.50;99.90
10848;DHT22;5477;48.806;9.154;2024-03-29T04:10:10;9.50;99.90
10848;DHT22;5477;48.806;9.154;2024-03-29T04:12:37;9.50;99.90
10848;DHT22;5477;48.806;9.154;2024-03-29T04:15:05;9.50;99.90
10848;DHT22;5477;48.806;9.154;2024-03-29T04:17:32;9.60;99.90
10848;DHT22;5477;48.806;9.154;2024-03-29T04:20:00;9.60;99.90
10848;DHT22;5477;48.806;9.154;2024-03-29T04:22:28;9.60;99.90
10848;DHT22;5477;48.806;9.154;2024-03-29T04:24:56;9.70;99.90
10848;DHT22;5477;48.806;9.154;2024-03-29T04:27:22;9.70;99.90
10848;DHT22;5477;48.806;9.154;2024-03-29T04:29:51;9.70;99.80
10848;DHT22;5477;48.806;9.154;2024-03-29T04:32:17;9.70;99.90
10848;DHT22;5477;48.806;9.154;2024-03-29T04:34:46;9.70;99.90
10848;DHT22;5477;48.806;9.154;2024-03-29T04:37:12;9.70;99.90
10848;DHT22;5477;48.806;9.154;2024-03-29T04:39:42;9.80;99.90
10848;DHT22;5477;48.806;9.154;2024-03-29T04:42:10;9.70;99.90
10848;DHT22;5477;48.806;9.154;2024-03-29T04:44:37;9.70;99.90
10848;DHT22;5477;48.806;9.154;2024-03-29T04:47:05;9.60;99.90
10848;DHT22;5477;48.806;9.154;2024-03-29T04:49:32;9.50;99.90
10848;DHT22;5477;48.806;9.154;2024-03-29T04:52:02;9.50;99.90
10848;DHT22;5477;48.806;9.154;2024-03-29T04:54:30;9.50;99.90
10848;DHT22;5477;48.806;9.154;2024-03-29T04:56:58;9.60;99.90
10848;DHT22;5477;48.806;9.154;2024-03-29T04:59:27;9.60;99.90
10848;DHT22;5477;48.806;9.154;2024-03-29T05:01:54;9.70;99.90
10848;DHT22;5477;48.806;9.154;2024-03-29T05:04:22;9.60;99.90
10848;DHT22;5477;48.806;9.154;2024-03-29T05:06:52;9.70;99.90
10848;DHT22;5477;48.806;9.154;2024-03-29T05:09:19;9.70;99.90
10848;DHT22;5477;48.806;9.154;2024-03-29T05:11:46;9.70;99.90
10848;DHT22;5477;48.806;9.154;2024-03-29T05:14:15;9.70;99.90
10848;DHT22;5477;48.806;9.154;2024-03-29T05:16:44;9.80;99.90
10848;DHT22;5477;48.806;9.154;2024-03-29T05:19:11;9.80;99.90
10848;DHT22;5477;48.806;9.154;2024-03-29T05:21:39;9.80;99.90
10848;DHT22;5477;48.806;9.154;2024-03-29T05:24:06;9.80;99.80
10848;DHT22;5477;48.806;9.154;2024-03-29T05:26:33;9.90;99.70
10848;DHT22;5477;48.806;9.154;2024-03-29T05:29:00;9.90;99.10
10848;DHT22;5477;48.806;9.154;2024-03-29T05:31:31;9.90;99.00
10848;DHT22;5477;48.806;9.154;2024-03-29T05:33:58;9.90;99.10
10848;DHT22;5477;48.806;9.154;2024-03-29T05:36:26;9.90;99.80
10848;DHT22;5477;48.806;9.154;2024-03-29T05:38:52;9.90;99.90
10848;DHT22;5477;48.806;9.154;2024-03-29T05:41:19;9.90;99.90
10848;DHT22;5477;48.806;9.154;2024-03-29T05:43:46;9.90;99.90
10848;DHT22;5477;48.806;9.154;2024-03-29T05:46:15;9.90;99.90
10848;DHT22;5477;48.806;9.154;2024-03-29T05:48:44;9.90;99.50
10848;DHT22;5477;48.806;9.154;2024-03-29T05:51:11;9.90;99.60
10848;DHT22;5477;48.806;9.154;2024-03-29T05:53:38;9.90;99.60
10848;DHT22;5477;48.806;9.154;2024-03-29T05:56:05;9.90;98.90
10848;DHT22;5477;48.806;9.154;2024-03-29T05:58:33;9.90;98.70
10848;DHT22;5477;48.806;9.154;2024-03-29T06:01:00;10.00;98.00
10848;DHT22;5477;48.806;9.154;2024-03-29T06:03:27;10.00;98.00
10848;DHT22;5477;48.806;9.154;2024-03-29T06:05:56;10.00;98.20
10848;DHT22;5477;48.806;9.154;2024-03-29T06:08:24;10.00;98.10
10848;DHT22;5477;48.806;9.154;2024-03-29T06:10:53;10.00;98.20
10848;DHT22;5477;48.806;9.154;2024-03-29T06:13:20;10.10;98.60
10848;DHT22;5477;48.806;9.154;2024-03-29T06:16:14;10.10;98.10
10848;DHT22;5477;48.806;9.154;2024-03-29T06:18:59;10.20;97.50
10848;DHT22;5477;48.806;9.154;2024-03-29T06:21:28;10.20;96.90
10848;DHT22;5477;48.806;9.154;2024-03-29T06:23:58;10.30;97.30
10848;DHT22;5477;48.806;9.154;2024-03-29T06:26:25;10.30;96.90
10848;DHT22;5477;48.806;9.154;2024-03-29T06:28:52;10.40;97.10
10848;DHT22;5477;48.806;9.154;2024-03-29T06:31:19;10.40;97.00
10848;DHT22;5477;48.806;9.154;2024-03-29T06:33:46;10.50;96.90
10848;DHT22;5477;48.806;9.154;2024-03-29T06:36:13;10.50;96.70
10848;DHT22;5477;48.806;9.154;2024-03-29T06:38:41;10.60;96.90
10848;DHT22;5477;48.806;9.154;2024-03-29T06:41:08;10.60;96.80
10848;DHT22;5477;48.806;9.154;2024-03-29T06:43:36;10.70;96.20
10848;DHT22;5477;48.806;9.154;2024-03-29T06:46:03;10.80;96.50
10848;DHT22;5477;48.806;9.154;2024-03-29T06:48:30;10.90;96.00
10848;DHT22;5477;48.806;9.154;2024-03-29T06:50:58;10.90;95.90
10848;DHT22;5477;48.806;9.154;2024-03-29T06:53:25;11.00;95.90
10848;DHT22;5477;48.806;9.154;2024-03-29T06:55:55;11.10;95.70
10848;DHT22;5477;48.806;9.154;2024-03-29T06:58:23;11.30;95.70
10848;DHT22;5477;48.806;9.154;2024-03-29T07:00:50;11.30;95.00
10848;DHT22;5477;48.806;9.154;2024-03-29T07:03:18;11.40;95.20
10848;DHT22;5477;48.806;9.154;2024-03-29T07:05:46;11.50;95.00
10848;DHT22;5477;48.806;9.154;2024-03-29T07:08:13;11.60;93.90
10848;DHT22;5477;48.806;9.154;2024-03-29T07:10:40;11.60;93.60
10848;DHT22;5477;48.806;9.154;2024-03-29T07:13:09;11.60;93.60
10848;DHT22;5477;48.806;9.154;2024-03-29T07:15:36;11.70;93.80
10848;DHT22;5477;48.806;9.154;2024-03-29T07:18:04;11.70;93.60
10848;DHT22;5477;48.806;9.154;2024-03-29T07:20:31;11.70;93.60
10848;DHT22;5477;48.806;9.154;2024-03-29T07:22:58;11.60;94.00
10848;DHT22;5477;48.806;9.154;2024-03-29T07:25:25;11.60;93.80
10848;DHT22;5477;48.806;9.154;2024-03-29T07:27:53;11.50;93.90
10848;DHT22;5477;48.806;9.154;2024-03-29T07:30:21;11.50;94.00
10848;DHT22;5477;48.806;9.154;2024-03-29T07:32:49;11.50;94.60
10848;DHT22;5477;48.806;9.154;2024-03-29T07:35:16;11.40;94.90
10848;DHT22;5477;48.806;9.154;2024-03-29T07:37:44;11.40;97.90
10848;DHT22;5477;48.806;9.154;2024-03-29T07:40:13;11.30;99.90
10848;DHT22;5477;48.806;9.154;2024-03-29T07:42:40;11.10;99.90
10848;DHT22;5477;48.806;9.154;2024-03-29T07:45:08;11.10;99.90
10848;DHT22;5477;48.806;9.154;2024-03-29T07:47:36;11.00;99.90
10848;DHT22;5477;48.806;9.154;2024-03-29T07:50:04;10.90;99.90
10848;DHT22;5477;48.806;9.154;2024-03-29T07:52:33;10.80;99.90
10848;DHT22;5477;48.806;9.154;2024-03-29T07:55:00;10.70;99.90
10848;DHT22;5477;48.806;9.154;2024-03-29T07:57:27;10.50;99.90
10848;DHT22;5477;48.806;9.154;2024-03-29T07:59:54;10.30;99.90
10848;DHT22;5477;48.806;9.154;2024-03-29T08:02:21;10.20;99.90
10848;DHT22;5477;48.806;9.154;2024-03-29T08:04:52;10.00;99.90
10848;DHT22;5477;48.806;9.154;2024-03-29T08:07:19;9.80;99.90
10848;DHT22;5477;48.806;9.154;2024-03-29T08:09:46;9.70;99.90
10848;DHT22;5477;48.806;9.154;2024-03-29T08:12:13;9.50;99.90
10848;DHT22;5477;48.806;9.154;2024-03-29T08:14:41;9.40;99.90
10848;DHT22;5477;48.806;9.154;2024-03-29T08:17:08;9.30;99.90
10848;DHT22;5477;48.806;9.154;2024-03-29T08:19:35;9.20;99.90
10848;DHT22;5477;48.806;9.154;2024-03-29T08:22:04;9.10;99.90
10848;DHT22;5477;48.806;9.154;2024-03-29T08:24:31;9.10;99.90
10848;DHT22;5477;48.806;9.154;2024-03-29T08:26:58;9.00;99.90
10848;DHT22;5477;48.806;9.154;2024-03-29T08:29:28;8.90;99.90
10848;DHT22;5477;48.806;9.154;2024-03-29T08:31:54;8.90;99.90
10848;DHT22;5477;48.806;9.154;2024-03-29T08:34:22;8.80;99.90
10848;DHT22;5477;48.806;9.154;2024-03-29T08:36:50;8.80;99.90
10848;DHT22;5477;48.806;9.154;2024-03-29T08:39:18;8.70;99.90
10848;DHT22;5477;48.806;9.154;2024-03-29T08:41:45;8.70;99.90
10848;DHT22;5477;48.806;9.154;2024-03-29T08:44:12;8.60;99.90
10848;DHT22;5477;48.806;9.154;2024-03-29T08:46:39;8.60;99.90
10848;DHT22;5477;48.806;9.154;2024-03-29T08:49:06;8.60;99.90
10848;DHT22;5477;48.806;9.154;2024-03-29T08:51:33;8.60;99.90
10848;DHT22;5477;48.806;9.154;2024-03-29T08:54:00;8.70;99.90
10848;DHT22;5477;48.806;9.154;2024-03-29T08:56:32;8.80;99.90
10848;DHT22;5477;48.806;9.154;2024-03-29T08:59:02;8.90;99.90
10848;DHT22;5477;48.806;9.154;2024-03-29T09:01:33;8.90;99.90
10848;DHT22;5477;48.806;9.154;2024-03-29T09:04:01;9.00;99.90
10848;DHT22;5477;48.806;9.154;2024-03-29T09:06:29;9.00;99.90
10848;DHT22;5477;48.806;9.154;2024-03-29T09:08:56;9.10;99.90
10848;DHT22;5477;48.806;9.154;2024-03-29T09:11:23;9.20;99.90
10848;DHT22;5477;48.806;9.154;2024-03-29T09:13:51;9.20;99.90
10848;DHT22;5477;48.806;9.154;2024-03-29T09:16:19;9.30;99.90
10848;DHT22;5477;48.806;9.154;2024-03-29T09:18:46;9.40;99.90
10848;DHT22;5477;48.806;9.154;2024-03-29T09:21:13;9.60;99.90
10848;DHT22;5477;48.806;9.154;2024-03-29T09:23:40;9.80;99.90
10848;DHT22;5477;48.806;9.154;2024-03-29T09:26:07;10.00;99.90
10848;DHT22;5477;48.806;9.154;2024-03-29T09:28:35;10.10;99.90
10848;DHT22;5477;48.806;9.154;2024-03-29T09:31:04;10.20;99.90
10848;DHT22;5477;48.806;9.154;2024-03-29T09:33:31;10.30;99.90
10848;DHT22;5477;48.806;9.154;2024-03-29T09:35:58;10.40;99.90
10848;DHT22;5477;48.806;9.154;2024-03-29T09:38:26;10.40;99.90
10848;DHT22;5477;48.806;9.154;2024-03-29T09:41:05;10.40;99.90
10848;DHT22;5477;48.806;9.154;2024-03-29T09:43:36;10.30;99.90
10848;DHT22;5477;48.806;9.154;2024-03-29T09:46:06;10.30;99.90
10848;DHT22;5477;48.806;9.154;2024-03-29T09:48:36;10.20;99.90
10848;DHT22;5477;48.806;9.154;2024-03-29T09:51:04;10.20;99.90
10848;DHT22;5477;48.806;9.154;2024-03-29T09:53:34;10.30;99.90
10848;DHT22;5477;48.806;9.154;2024-03-29T09:56:03;10.40;99.90
10848;DHT22;5477;48.806;9.154;2024-03-29T09:58:30;10.50;99.90
10848;DHT22;5477;48.806;9.154;2024-03-29T10:00:58;10.60;99.90
10848;DHT22;5477;48.806;9.154;2024-03-29T10:03:27;10.80;99.90
10848;DHT22;5477;48.806;9.154;2024-03-29T10:05:56;10.90;99.90
10848;DHT22;5477;48.806;9.154;2024-03-29T10:08:25;10.90;99.90
10848;DHT22;5477;48.806;9.154;2024-03-29T10:10:56;11.00;99.90
10848;DHT22;5477;48.806;9.154;2024-03-29T10:13:26;11.00;99.90
10848;DHT22;5477;48.806;9.154;2024-03-29T10:15:54;11.00;99.90
10848;DHT22;5477;48.806;9.154;2024-03-29T10:18:22;11.00;99.90
10848;DHT22;5477;48.806;9.154;2024-03-29T10:21:00;11.10;99.90
10848;DHT22;5477;48.806;9.154;2024-03-29T10:23:27;11.30;99.90
10848;DHT22;5477;48.806;9.154;2024-03-29T10:25:55;11.40;99.90
10848;DHT22;5477;48.806;9.154;2024-03-29T10:28:22;11.40;99.90
10848;DHT22;5477;48.806;9.154;2024-03-29T10:30:50;11.50;99.90
10848;DHT22;5477;48.806;9.154;2024-03-29T10:33:17;11.60;99.90
10848;DHT22;5477;48.806;9.154;2024-03-29T10:35:44;11.70;99.90
10848;DHT22;5477;48.806;9.154;2024-03-29T10:38:12;11.80;99.90
10848;DHT22;5477;48.806;9.154;2024-03-29T10:40:41;11.90;99.90
10848;DHT22;5477;48.806;9.154;2024-03-29T10:43:09;11.80;99.90
10848;DHT22;5477;48.806;9.154;2024-03-29T10:45:38;11.80;99.90
10848;DHT22;5477;48.806;9.154;2024-03-29T10:48:06;11.90;99.90
10848;DHT22;5477;48.806;9.154;2024-03-29T10:50:35;12.00;99.90
10848;DHT22;5477;48.806;9.154;2024-03-29T10:53:03;12.10;99.90
10848;DHT22;5477;48.806;9.154;2024-03-29T10:55:33;12.10;99.90
10848;DHT22;5477;48.806;9.154;2024-03-29T10:58:02;12.10;99.90
10848;DHT22;5477;48.806;9.154;2024-03-29T11:00:33;12.30;99.90
10848;DHT22;5477;48.806;9.154;2024-03-29T11:03:09;12.50;99.90
10848;DHT22;5477;48.806;9.154;2024-03-29T11:05:44;12.70;99.90
10848;DHT22;5477;48.806;9.154;2024-03-29T11:08:13;13.00;99.90
10848;DHT22;5477;48.806;9.154;2024-03-29T11:10:44;13.00;99.90
10848;DHT22;5477;48.806;9.154;2024-03-29T11:13:19;13.10;99.90
10848;DHT22;5477;48.806;9.154;2024-03-29T11:15:49;13.00;99.90
10848;DHT22;5477;48.806;9.154;2024-03-29T11:18:17;13.10;99.90
10848;DHT22;5477;48.806;9.154;2024-03-29T11:20:46;13.30;99.90
10848;DHT22;5477;48.806;9.154;2024-03-29T11:23:18;13.60;99.90
10848;DHT22;5477;48.806;9.154;2024-03-29T11:25:49;13.80;99.90
10848;DHT22;5477;48.806;9.154;2024-03-29T11:28:23;14.10;99.90
10848;DHT22;5477;48.806;9.154;2024-03-29T11:30:53;14.10;99.90
10848;DHT22;5477;48.806;9.154;2024-03-29T11:33:30;14.00;99.90
10848;DHT22;5477;48.806;9.154;2024-03-29T11:35:57;14.00;99.90
10848;DHT22;5477;48.806;9.154;2024-03-29T11:38:33;14.10;99.90
10848;DHT22;5477;48.806;9.154;2024-03-29T11:41:10;14.00;99.90
10848;DHT22;5477;48.806;9.154;2024-03-29T11:43:38;13.90;99.90
10848;DHT22;5477;48.806;9.154;2024-03-29T11:46:06;13.80;99.90
10848;DHT22;5477;48.806;9.154;2024-03-29T11:48:34;13.90;99.90
10848;DHT22;5477;48.806;9.154;2024-03-29T11:51:03;13.90;99.90
10848;DHT22;5477;48.806;9.154;2024-03-29T11:53:31;13.80;99.90
10848;DHT22;5477;48.806;9.154;2024-03-29T11:55:58;13.90;99.90
10848;DHT22;5477;48.806;9.154;2024-03-29T11:58:28;13.80;99.90
10848;DHT22;5477;48.806;9.154;2024-03-29T12:00:56;13.80;99.90
10848;DHT22;5477;48.806;9.154;2024-03-29T12:03:25;13.70;99.90
10848;DHT22;5477;48.806;9.154;2024-03-29T12:05:54;13.60;99.90
10848;DHT22;5477;48.806;9.154;2024-03-29T12:08:24;13.70;99.90
10848;DHT22;5477;48.806;9.154;2024-03-29T12:10:52;13.70;99.90
10848;DHT22;5477;48.806;9.154;2024-03-29T12:13:19;13.70;99.90
10848;DHT22;5477;48.806;9.154;2024-03-29T12:15:48;13.70;99.90
10848;DHT22;5477;48.806;9.154;2024-03-29T12:18:15;13.70;99.90
10848;DHT22;5477;48.806;9.154;2024-03-29T12:20:43;13.80;99.90
10848;DHT22;5477;48.806;9.154;2024-03-29T12:23:16;13.80;99.90
10848;DHT22;5477;48.806;9.154;2024-03-29T12:25:44;14.00;99.90
10848;DHT22;5477;48.806;9.154;2024-03-29T12:28:12;14.30;99.90
10848;DHT22;5477;48.806;9.154;2024-03-29T12:30:41;14.50;99.90
10848;DHT22;5477;48.806;9.154;2024-03-29T12:33:12;14.70;99.90
10848;DHT22;5477;48.806;9.154;2024-03-29T12:35:41;14.80;99.90
10848;DHT22;5477;48.806;9.154;2024-03-29T12:38:11;14.70;99.90
10848;DHT22;5477;48.806;9.154;2024-03-29T12:40:40;14.80;99.90
10848;DHT22;5477;48.806;9.154;2024-03-29T12:43:10;14.90;99.90
10848;DHT22;5477;48.806;9.154;2024-03-29T12:45:39;15.00;99.90
10848;DHT22;5477;48.806;9.154;2024-03-29T12:48:11;15.10;99.90
10848;DHT22;5477;48.806;9.154;2024-03-29T12:50:40;15.30;99.90
10848;DHT22;5477;48.806;9.154;2024-03-29T12:53:08;15.70;99.90
10848;DHT22;5477;48.806;9.154;2024-03-29T12:55:36;16.20;99.90
10848;DHT22;5477;48.806;9.154;2024-03-29T12:58:05;16.60;99.90
10848;DHT22;5477;48.806;9.154;2024-03-29T13:00:35;16.70;99.90
10848;DHT22;5477;48.806;9.154;2024-03-29T13:03:02;16.70;99.90
10848;DHT22;5477;48.806;9.154;2024-03-29T13:05:31;16.60;99.90
10848;DHT22;5477;48.806;9.154;2024-03-29T13:08:01;16.60;99.90
10848;DHT22;5477;48.806;9.154;2024-03-29T13:10:28;16.80;99.90
10848;DHT22;5477;48.806;9.154;2024-03-29T13:12:55;17.00;99.90
10848;DHT22;5477;48.806;9.154;2024-03-29T13:15:24;17.20;99.90
10848;DHT22;5477;48.806;9.154;2024-03-29T13:17:52;17.40;99.90
10848;DHT22;5477;48.806;9.154;2024-03-29T13:20:21;17.90;99.90
10848;DHT22;5477;48.806;9.154;2024-03-29T13:22:50;18.90;99.90
10848;DHT22;5477;48.806;9.154;2024-03-29T13:25:20;19.40;99.90
10848;DHT22;5477;48.806;9.154;2024-03-29T13:27:49;19.60;99.90
10848;DHT22;5477;48.806;9.154;2024-03-29T13:30:21;19.90;99.90
10848;DHT22;5477;48.806;9.154;2024-03-29T13:32:49;20.50;99.90
10848;DHT22;5477;48.806;9.154;2024-03-29T13:35:17;20.80;99.90
10848;DHT22;5477;48.806;9.154;2024-03-29T13:37:48;20.80;99.80
10848;DHT22;5477;48.806;9.154;2024-03-29T13:40:20;20.70;99.40
10848;DHT22;5477;48.806;9.154;2024-03-29T13:42:47;20.60;99.40
10848;DHT22;5477;48.806;9.154;2024-03-29T13:45:15;20.50;99.90
10848;DHT22;5477;48.806;9.154;2024-03-29T13:47:43;20.70;99.90
10848;DHT22;5477;48.806;9.154;2024-03-29T13:50:12;20.50;99.90
10848;DHT22;5477;48.806;9.154;2024-03-29T13:52:41;20.50;99.90
10848;DHT22;5477;48.806;9.154;2024-03-29T13:55:09;20.90;99.90
10848;DHT22;5477;48.806;9.154;2024-03-29T13:57:38;21.40;99.90
10848;DHT22;5477;48.806;9.154;2024-03-29T14:00:07;21.80;99.50
10848;DHT22;5477;48.806;9.154;2024-03-29T14:02:34;22.10;99.70
10848;DHT22;5477;48.806;9.154;2024-03-29T14:05:01;21.90;98.80
10848;DHT22;5477;48.806;9.154;2024-03-29T14:07:29;22.20;99.10
10848;DHT22;5477;48.806;9.154;2024-03-29T14:09:55;22.50;98.60
10848;DHT22;5477;48.806;9.154;2024-03-29T14:12:24;22.10;98.40
10848;DHT22;5477;48.806;9.154;2024-03-29T14:14:53;21.70;98.70
10848;DHT22;5477;48.806;9.154;2024-03-29T14:17:20;21.70;99.00
10848;DHT22;5477;48.806;9.154;2024-03-29T14:19:48;22.20;98.60
10848;DHT22;5477;48.806;9.154;2024-03-29T14:22:15;22.30;97.90
10848;DHT22;5477;48.806;9.154;2024-03-29T14:24:45;21.90;97.40
10848;DHT22;5477;48.806;9.154;2024-03-29T14:27:12;21.70;97.90
10848;DHT22;5477;48.806;9.154;2024-03-29T14:29:40;21.70;96.80
10848;DHT22;5477;48.806;9.154;2024-03-29T14:32:11;21.60;97.00
10848;DHT22;5477;48.806;9.154;2024-03-29T14:34:39;21.50;98.60
10848;DHT22;5477;48.806;9.154;2024-03-29T14:37:12;21.50;98.40
10848;DHT22;5477;48.806;9.154;2024-03-29T14:39:41;21.60;97.80
10848;DHT22;5477;48.806;9.154;2024-03-29T14:42:10;21.90;97.70
10848;DHT22;5477;48.806;9.154;2024-03-29T14:44:40;22.20;96.90
10848;DHT22;5477;48.806;9.154;2024-03-29T14:47:07;22.20;96.90
10848;DHT22;5477;48.806;9.154;2024-03-29T14:49:36;22.00;97.10
10848;DHT22;5477;48.806;9.154;2024-03-29T14:52:04;21.80;97.60
10848;DHT22;5477;48.806;9.154;2024-03-29T14:54:31;22.00;97.30
10848;DHT22;5477;48.806;9.154;2024-03-29T14:56:58;21.90;96.90
10848;DHT22;5477;48.806;9.154;2024-03-29T14:59:25;21.90;97.00
10848;DHT22;5477;48.806;9.154;2024-03-29T15:01:56;21.60;97.70
10848;DHT22;5477;48.806;9.154;2024-03-29T15:04:23;21.50;97.80
10848;DHT22;5477;48.806;9.154;2024-03-29T15:06:51;21.30;98.20
10848;DHT22;5477;48.806;9.154;2024-03-29T15:09:18;21.10;98.40
10848;DHT22;5477;48.806;9.154;2024-03-29T15:11:45;21.00;99.10
10848;DHT22;5477;48.806;9.154;2024-03-29T15:14:13;21.00;99.20
10848;DHT22;5477;48.806;9.154;2024-03-29T15:16:40;21.10;98.70
10848;DHT22;5477;48.806;9.154;2024-03-29T15:19:07;20.80;98.80
10848;DHT22;5477;48.806;9.154;2024-03-29T15:21:34;20.50;99.40
10848;DHT22;5477;48.806;9.154;2024-03-29T15:24:04;20.60;99.60
10848;DHT22;5477;48.806;9.154;2024-03-29T15:26:31;20.40;99.70
10848;DHT22;5477;48.806;9.154;2024-03-29T15:28:59;20.60;99.90
10848;DHT22;5477;48.806;9.154;2024-03-29T15:31:34;21.00;99.50
10848;DHT22;5477;48.806;9.154;2024-03-29T15:34:02;21.50;98.60
10848;DHT22;5477;48.806;9.154;2024-03-29T15:36:30;21.50;98.50
10848;DHT22;5477;48.806;9.154;2024-03-29T15:38:58;21.00;98.80
10848;DHT22;5477;48.806;9.154;2024-03-29T15:41:32;20.60;99.50
10848;DHT22;5477;48.806;9.154;2024-03-29T15:44:01;20.20;99.90
10848;DHT22;5477;48.806;9.154;2024-03-29T15:46:28;19.90;99.90
10848;DHT22;5477;48.806;9.154;2024-03-29T15:48:56;19.60;99.90
10848;DHT22;5477;48.806;9.154;2024-03-29T15:51:23;19.50;99.90
10848;DHT22;5477;48.806;9.154;2024-03-29T15:53:51;19.20;99.90
10848;DHT22;5477;48.806;9.154;2024-03-29T15:56:20;19.00;99.90
10848;DHT22;5477;48.806;9.154;2024-03-29T15:58:49;18.80;99.90